createdAt,value
2019-02-17T00:03:42.086Z,88.92
2019-02-17T00:06:10.707Z,89.35
2019-02-17T00:08:39.302Z,89.45
2019-02-17T00:11:07.478Z,89.40
2019-02-17T00:13:36.012Z,89.46
2019-02-17T00:16:04.648Z,89.39
2019-02-17T00:18:32.892Z,89.34
2019-02-17T00:21:01.101Z,89.71
2019-02-17T00:23:29.094Z,89.42
2019-02-17T00:25:57.317Z,89.92
2019-02-17T00:28:25.972Z,90.01
2019-02-17T00:31:15.108Z,89.95
2019-02-17T00:33:43.480Z,89.82
2019-02-17T00:36:11.404Z,90.55
2019-02-17T00:38:40.035Z,90.56
2019-02-17T00:41:08.318Z,90.74
2019-02-17T00:43:36.174Z,91.10
2019-02-17T00:46:04.510Z,91.08
2019-02-17T00:48:32.879Z,90.84
2019-02-17T00:51:01.369Z,90.30
2019-02-17T00:53:29.341Z,89.92
2019-02-17T00:55:56.874Z,90.01
2019-02-17T00:58:24.769Z,91.15
2019-02-17T01:00:52.957Z,91.48
2019-02-17T01:03:21.246Z,91.63
2019-02-17T01:05:49.827Z,91.51
2019-02-17T01:08:18.117Z,91.25
2019-02-17T01:10:46.389Z,91.51
2019-02-17T01:13:14.186Z,91.24
2019-02-17T01:15:42.972Z,90.75
2019-02-17T01:18:10.851Z,89.93
2019-02-17T01:20:38.821Z,89.78
2019-02-17T01:23:07.088Z,89.54
2019-02-17T01:25:35.007Z,89.30
2019-02-17T01:28:03.655Z,89.35
2019-02-17T01:30:32.047Z,89.27
2019-02-17T01:33:00.645Z,88.99
2019-02-17T01:35:28.790Z,88.58
2019-02-17T01:37:58.343Z,88.92
2019-02-17T01:40:27.259Z,89.33
2019-02-17T01:42:55.199Z,89.75
2019-02-17T01:45:23.887Z,90.53
2019-02-17T01:47:52.067Z,90.81
2019-02-17T01:50:20.742Z,91.11
2019-02-17T01:52:49.044Z,91.36
2019-02-17T01:55:17.228Z,92.23
2019-02-17T01:57:45.821Z,91.55
2019-02-17T02:00:13.929Z,91.93
2019-02-17T02:02:42.308Z,91.77
2019-02-17T02:05:10.576Z,91.04
2019-02-17T02:07:39.048Z,89.27
2019-02-17T02:10:07.544Z,88.15
2019-02-17T02:12:36.111Z,87.95
2019-02-17T02:15:44.835Z,88.56
2019-02-17T02:18:13.098Z,88.62
2019-02-17T02:20:41.374Z,88.90
2019-02-17T02:23:09.553Z,88.26
2019-02-17T02:25:37.737Z,87.31
2019-02-17T02:28:05.912Z,87.27
2019-02-17T02:30:33.824Z,87.53
2019-02-17T02:33:02.478Z,88.03
2019-02-17T02:35:31.124Z,88.69
2019-02-17T02:37:59.460Z,89.52
2019-02-17T02:40:27.429Z,89.98
2019-02-17T02:42:56.100Z,90.69
2019-02-17T02:45:24.791Z,91.31
2019-02-17T02:47:52.981Z,91.37
2019-02-17T02:50:21.373Z,91.11
2019-02-17T02:52:49.918Z,91.36
2019-02-17T02:55:18.583Z,91.14
2019-02-17T02:57:47.082Z,90.52
2019-02-17T03:00:15.309Z,90.13
2019-02-17T03:02:43.494Z,89.90
2019-02-17T03:05:11.895Z,89.87
2019-02-17T03:07:40.183Z,90.10
2019-02-17T03:10:08.361Z,90.36
2019-02-17T03:12:35.879Z,89.77
2019-02-17T03:15:44.213Z,89.40
2019-02-17T03:18:12.759Z,89.36
2019-02-17T03:20:41.061Z,89.59
2019-02-17T03:23:09.766Z,89.39
2019-02-17T03:25:37.933Z,89.34
2019-02-17T03:28:06.227Z,89.72
2019-02-17T03:30:34.729Z,90.08
2019-02-17T03:33:02.917Z,89.55
2019-02-17T03:35:31.067Z,89.08
2019-02-17T03:37:59.672Z,88.93
2019-02-17T03:40:27.547Z,88.99
2019-02-17T03:42:55.912Z,89.04
2019-02-17T03:45:24.417Z,89.17
2019-02-17T03:47:52.684Z,88.79
2019-02-17T03:50:20.963Z,88.40
2019-02-17T03:52:49.253Z,88.84
2019-02-17T03:55:17.516Z,89.36
2019-02-17T03:57:45.630Z,89.84
2019-02-17T04:00:17.064Z,89.80
2019-02-17T04:02:50.155Z,88.90
2019-02-17T04:05:18.414Z,89.36
2019-02-17T04:07:47.048Z,89.66
2019-02-17T04:10:15.557Z,89.88
2019-02-17T04:12:43.422Z,90.00
2019-02-17T04:15:12.090Z,88.99
2019-02-17T04:17:40.668Z,88.35
2019-02-17T04:20:08.556Z,87.57
2019-02-17T04:22:36.412Z,87.68
2019-02-17T04:25:05.109Z,88.22
2019-02-17T04:27:33.287Z,88.93
2019-02-17T04:30:01.476Z,89.09
2019-02-17T04:32:29.677Z,89.16
2019-02-17T04:34:58.326Z,89.23
2019-02-17T04:37:26.217Z,89.39
2019-02-17T04:39:54.424Z,89.33
2019-02-17T04:42:22.989Z,88.27
2019-02-17T04:44:51.271Z,88.01
2019-02-17T04:47:19.474Z,88.53
2019-02-17T04:49:48.310Z,89.24
2019-02-17T04:52:16.508Z,89.87
2019-02-17T04:54:45.123Z,89.98
2019-02-17T04:57:12.969Z,89.75
2019-02-17T04:59:40.477Z,89.62
2019-02-17T05:02:08.372Z,89.27
2019-02-17T05:04:36.785Z,90.26
2019-02-17T05:07:05.479Z,90.22
2019-02-17T05:09:34.223Z,90.42
2019-02-17T05:12:02.448Z,89.98
2019-02-17T05:14:30.643Z,89.86
2019-02-17T05:16:58.922Z,89.45
2019-02-17T05:19:27.520Z,88.91
2019-02-17T05:21:55.806Z,88.70
2019-02-17T05:24:24.394Z,89.85
2019-02-17T05:26:52.675Z,90.06
2019-02-17T05:29:20.844Z,90.36
2019-02-17T05:31:49.114Z,89.90
2019-02-17T05:34:17.372Z,88.53
2019-02-17T05:36:46.104Z,88.31
2019-02-17T05:39:14.031Z,87.74
2019-02-17T05:41:42.671Z,87.30
2019-02-17T05:44:10.935Z,87.76
2019-02-17T05:46:39.339Z,87.90
2019-02-17T05:49:07.511Z,87.99
2019-02-17T05:51:35.394Z,88.20
2019-02-17T05:54:03.736Z,87.95
2019-02-17T05:56:31.547Z,87.18
2019-02-17T05:58:59.805Z,86.46
2019-02-17T06:01:28.343Z,85.87
2019-02-17T06:03:56.180Z,86.26
2019-02-17T06:06:24.053Z,87.43
2019-02-17T06:08:52.430Z,87.16
2019-02-17T06:11:20.715Z,87.28
2019-02-17T06:13:49.303Z,87.90
2019-02-17T06:16:17.890Z,87.92
2019-02-17T06:18:46.182Z,87.48
2019-02-17T06:21:14.773Z,88.17
2019-02-17T06:23:43.273Z,88.17
2019-02-17T06:26:11.157Z,88.51
2019-02-17T06:28:39.005Z,89.10
2019-02-17T06:31:14.531Z,89.74
2019-02-17T06:33:37.824Z,89.88
2019-02-17T06:36:06.532Z,90.28
2019-02-17T06:38:34.664Z,90.05
2019-02-17T06:41:02.889Z,89.55
2019-02-17T06:43:31.263Z,89.27
2019-02-17T06:45:59.678Z,88.51
2019-02-17T06:48:28.028Z,87.75
2019-02-17T06:50:56.747Z,87.46
2019-02-17T06:53:25.433Z,88.14
2019-02-17T06:56:01.761Z,88.25
2019-02-17T06:58:30.268Z,88.18
2019-02-17T07:01:00.170Z,88.17
2019-02-17T07:03:28.134Z,87.59
2019-02-17T07:06:15.926Z,86.39
2019-02-17T07:08:43.766Z,85.43
2019-02-17T07:11:12.310Z,84.29
2019-02-17T07:13:40.840Z,83.71
2019-02-17T07:16:09.009Z,84.08
2019-02-17T07:18:37.327Z,85.12
2019-02-17T07:21:04.853Z,85.22
2019-02-17T07:23:33.293Z,85.83
2019-02-17T07:26:01.625Z,86.58
2019-02-17T07:28:29.855Z,86.78
2019-02-17T07:30:58.179Z,86.34
2019-02-17T07:33:26.870Z,85.86
2019-02-17T07:35:54.455Z,85.52
2019-02-17T07:38:22.724Z,85.51
2019-02-17T07:40:51.322Z,86.11
2019-02-17T07:43:19.503Z,86.33
2019-02-17T07:45:48.128Z,86.58
2019-02-17T07:48:16.379Z,86.56
2019-02-17T07:50:44.234Z,86.32
2019-02-17T07:53:12.506Z,87.07
2019-02-17T07:55:41.206Z,87.17
2019-02-17T07:58:09.494Z,87.46
2019-02-17T08:00:37.669Z,87.95
2019-02-17T08:03:06.377Z,87.47
2019-02-17T08:05:34.639Z,88.05
2019-02-17T08:08:03.032Z,87.73
2019-02-17T08:10:31.309Z,87.43
2019-02-17T08:13:00.249Z,87.01
2019-02-17T08:15:28.593Z,86.47
2019-02-17T08:17:56.872Z,86.39
2019-02-17T08:20:25.502Z,85.79
2019-02-17T08:22:54.155Z,85.94
2019-02-17T08:25:22.754Z,85.52
2019-02-17T08:27:50.571Z,85.39
2019-02-17T08:30:19.195Z,85.32
2019-02-17T08:32:47.495Z,84.65
2019-02-17T08:35:15.761Z,84.54
2019-02-17T08:37:43.753Z,84.02
2019-02-17T08:40:11.983Z,82.89
2019-02-17T08:42:39.916Z,82.32
2019-02-17T08:45:08.392Z,82.21
2019-02-17T08:47:36.987Z,82.52
2019-02-17T08:50:05.908Z,82.29
2019-02-17T08:52:34.450Z,81.97
2019-02-17T08:55:02.655Z,82.05
2019-02-17T08:57:31.217Z,82.18
2019-02-17T08:59:59.201Z,81.98
2019-02-17T09:02:27.269Z,81.52
2019-02-17T09:04:55.992Z,81.20
2019-02-17T09:07:23.449Z,80.80
2019-02-17T09:09:51.863Z,80.43
2019-02-17T09:12:19.791Z,80.11
2019-02-17T09:14:48.012Z,79.33
2019-02-17T09:17:16.610Z,79.04
2019-02-17T09:19:43.828Z,78.27
2019-02-17T09:22:11.712Z,77.89
2019-02-17T09:24:40.386Z,76.89
2019-02-17T09:27:08.375Z,75.99
2019-02-17T09:29:36.711Z,75.36
2019-02-17T09:32:15.694Z,74.16
2019-02-17T09:34:42.481Z,72.52
2019-02-17T09:37:10.731Z,70.97
2019-02-17T09:39:38.979Z,68.90
2019-02-17T09:42:07.680Z,67.60
2019-02-17T09:44:36.353Z,65.30
2019-02-17T09:47:04.743Z,62.87
2019-02-17T09:49:33.078Z,59.80
2019-02-17T09:52:01.608Z,57.55
2019-02-17T09:54:30.231Z,56.27
2019-02-17T09:56:58.459Z,55.67
2019-02-17T09:59:26.981Z,54.73
2019-02-17T10:01:55.385Z,53.75
2019-02-17T10:04:24.222Z,52.54
2019-02-17T10:06:52.780Z,51.73
2019-02-17T10:09:21.512Z,49.34
2019-02-17T10:11:50.599Z,48.52
2019-02-17T10:14:27.204Z,47.81
2019-02-17T10:16:55.120Z,47.04
2019-02-17T10:19:23.452Z,45.10
2019-02-17T10:21:52.097Z,43.36
2019-02-17T10:24:20.795Z,43.32
2019-02-17T10:26:48.989Z,40.78
2019-02-17T10:29:17.599Z,38.28
2019-02-17T10:31:45.931Z,38.97
2019-02-17T10:34:14.175Z,38.80
2019-02-17T10:36:42.221Z,38.57
2019-02-17T10:39:10.603Z,38.52
2019-02-17T10:41:57.574Z,38.12
2019-02-17T10:44:28.404Z,36.44
2019-02-17T10:46:56.683Z,36.44
2019-02-17T10:49:25.063Z,37.10
2019-02-17T10:51:54.470Z,37.58
2019-02-17T10:54:34.943Z,39.07
2019-02-17T10:57:03.565Z,39.07
2019-02-17T10:59:31.871Z,38.50
2019-02-17T11:02:00.656Z,39.39
2019-02-17T11:04:29.330Z,39.95
2019-02-17T11:07:09.089Z,37.09
2019-02-17T11:09:49.157Z,37.09
2019-02-17T11:12:17.394Z,36.15
2019-02-17T11:14:45.934Z,35.85
2019-02-17T11:17:14.354Z,36.15
2019-02-17T11:19:42.619Z,35.30
2019-02-17T11:22:10.961Z,33.61
2019-02-17T11:24:39.530Z,33.33
2019-02-17T11:27:07.883Z,31.97
2019-02-17T11:29:35.850Z,30.72
2019-02-17T11:32:04.063Z,29.06
2019-02-17T11:34:32.406Z,28.78
2019-02-17T11:37:00.016Z,28.85
2019-02-17T11:39:28.059Z,29.63
2019-02-17T11:41:55.618Z,29.17
2019-02-17T11:44:23.911Z,29.89
2019-02-17T11:46:51.938Z,30.60
2019-02-17T11:49:20.715Z,31.19
2019-02-17T11:51:49.418Z,31.95
2019-02-17T11:54:17.918Z,34.37
2019-02-17T11:56:46.524Z,35.12
2019-02-17T11:59:15.204Z,34.33
2019-02-17T12:01:43.852Z,33.51
2019-02-17T12:04:12.453Z,32.35
2019-02-17T12:06:41.074Z,31.76
2019-02-17T12:12:05.538Z,31.28
2019-02-17T12:14:34.586Z,30.62
2019-02-17T12:17:03.226Z,29.95
2019-02-17T12:19:31.095Z,29.00
2019-02-17T12:22:18.122Z,28.70
2019-02-17T12:24:51.058Z,28.22
2019-02-17T12:27:38.549Z,28.34
2019-02-17T12:30:25.745Z,29.06
2019-02-17T12:32:53.950Z,29.27
2019-02-17T12:35:21.787Z,28.36
2019-02-17T12:37:50.144Z,29.02
2019-02-17T12:40:19.164Z,29.52
2019-02-17T12:42:47.504Z,29.80
2019-02-17T12:45:18.231Z,29.80
2019-02-17T12:47:58.220Z,29.42
2019-02-17T12:50:30.231Z,29.54
2019-02-17T12:52:58.151Z,29.72
2019-02-17T12:55:27.071Z,27.55
2019-02-17T12:57:55.599Z,27.64
2019-02-17T13:00:23.215Z,27.68
2019-02-17T13:02:51.514Z,25.66
2019-02-17T13:05:19.813Z,26.29
2019-02-17T13:07:48.214Z,27.29
2019-02-17T13:10:16.573Z,26.98
2019-02-17T13:12:44.942Z,26.47
2019-02-17T13:15:13.962Z,26.38
2019-02-17T13:17:42.794Z,26.56
2019-02-17T13:20:11.841Z,25.07
2019-02-17T13:22:39.850Z,24.74
2019-02-17T13:25:09.363Z,25.17
2019-02-17T13:27:38.053Z,26.24
2019-02-17T13:30:09.698Z,25.15
2019-02-17T13:32:38.290Z,22.66
2019-02-17T13:35:07.019Z,21.91
2019-02-17T13:37:35.555Z,24.08
2019-02-17T13:40:03.842Z,23.04
2019-02-17T13:42:32.444Z,24.07
2019-02-17T13:45:00.101Z,21.72
2019-02-17T13:47:28.960Z,21.88
2019-02-17T13:49:57.756Z,23.84
2019-02-17T13:52:25.834Z,24.24
2019-02-17T13:54:53.859Z,24.99
2019-02-17T13:57:21.754Z,23.51
2019-02-17T13:59:50.135Z,22.23
2019-02-17T14:02:18.065Z,22.87
2019-02-17T14:04:46.454Z,24.27
2019-02-17T14:07:14.792Z,25.11
2019-02-17T14:09:43.689Z,23.39
2019-02-17T14:12:11.919Z,23.74
2019-02-17T14:14:40.510Z,24.61
2019-02-17T14:17:09.191Z,24.57
2019-02-17T14:19:37.492Z,20.76
2019-02-17T14:22:05.862Z,23.71
2019-02-17T14:24:34.187Z,22.44
2019-02-17T14:27:02.051Z,19.73
2019-02-17T14:29:29.579Z,20.83
2019-02-17T14:31:58.321Z,21.66
2019-02-17T14:34:27.039Z,20.93
2019-02-17T14:36:55.348Z,20.52
2019-02-17T14:42:11.396Z,22.57
2019-02-17T14:44:39.679Z,24.11
2019-02-17T14:47:08.181Z,23.65
2019-02-17T14:49:37.605Z,24.83
2019-02-17T14:52:05.918Z,24.80
2019-02-17T14:54:34.652Z,25.21
2019-02-17T14:57:03.456Z,23.90
2019-02-17T14:59:32.137Z,24.64
2019-02-17T15:02:00.945Z,23.71
2019-02-17T15:04:29.834Z,22.85
2019-02-17T15:06:58.216Z,22.97
2019-02-17T15:09:25.858Z,21.61
2019-02-17T15:11:55.020Z,20.87
2019-02-17T15:14:22.910Z,20.55
2019-02-17T15:16:51.548Z,20.30
2019-02-17T15:19:19.785Z,20.53
2019-02-17T15:21:48.218Z,20.60
2019-02-17T15:24:16.895Z,20.84
2019-02-17T15:26:45.599Z,20.92
2019-02-17T15:29:13.896Z,21.54
2019-02-17T15:31:42.171Z,21.83
2019-02-17T15:34:18.495Z,22.38
2019-02-17T15:36:50.506Z,22.81
2019-02-17T15:39:18.989Z,23.59
2019-02-17T15:41:47.387Z,23.23
2019-02-17T15:44:15.440Z,23.23
2019-02-17T15:46:44.180Z,24.16
2019-02-17T15:49:12.831Z,23.44
2019-02-17T15:51:41.371Z,23.08
2019-02-17T15:54:10.302Z,24.00
2019-02-17T15:56:38.702Z,23.10
2019-02-17T15:59:07.606Z,23.25
2019-02-17T16:01:36.265Z,22.54
2019-02-17T16:04:06.664Z,25.57
2019-02-17T16:06:34.642Z,28.83
2019-02-17T16:11:43.951Z,36.14
2019-02-17T16:14:11.990Z,39.77
2019-02-17T16:16:39.950Z,42.10
2019-02-17T16:19:08.731Z,44.55
2019-02-17T16:21:36.647Z,46.51
2019-02-17T16:24:04.935Z,48.50
2019-02-17T16:26:35.188Z,50.62
2019-02-17T16:29:11.499Z,52.73
2019-02-17T16:31:40.249Z,54.28
2019-02-17T16:34:08.892Z,56.33
2019-02-17T16:36:37.726Z,57.00
2019-02-17T16:42:08.459Z,59.46
2019-02-17T16:44:36.872Z,61.25
2019-02-17T16:47:05.321Z,61.64
2019-02-17T16:49:33.674Z,62.88
2019-02-17T16:52:01.575Z,63.52
2019-02-17T16:54:29.985Z,64.39
2019-02-17T16:56:58.431Z,64.88
2019-02-17T16:59:26.678Z,65.83
2019-02-17T17:01:55.146Z,66.61
2019-02-17T17:04:23.907Z,67.17
2019-02-17T17:06:52.625Z,68.04
2019-02-17T17:09:21.100Z,68.09
2019-02-17T17:11:49.466Z,68.16
2019-02-17T17:14:17.831Z,68.55
2019-02-17T17:16:46.751Z,69.29
2019-02-17T17:19:15.417Z,70.09
2019-02-17T17:21:43.848Z,69.60
2019-02-17T17:24:12.220Z,70.61
2019-02-17T17:26:41.014Z,70.36
2019-02-17T17:29:09.034Z,70.80
2019-02-17T17:31:37.879Z,70.36
2019-02-17T17:34:05.854Z,72.23
2019-02-17T17:36:34.645Z,71.59
2019-02-17T17:42:12.150Z,72.16
2019-02-17T17:44:40.923Z,71.86
2019-02-17T17:47:11.344Z,72.36
2019-02-17T17:49:39.874Z,72.89
2019-02-17T17:52:09.395Z,73.18
2019-02-17T17:54:38.057Z,73.74
2019-02-17T17:57:06.438Z,73.75
2019-02-17T17:59:34.834Z,74.74
2019-02-17T18:02:03.533Z,74.85
2019-02-17T18:04:31.916Z,74.97
2019-02-17T18:06:59.912Z,74.93
2019-02-17T18:09:28.396Z,75.69
2019-02-17T18:11:56.750Z,75.87
2019-02-17T18:14:25.106Z,75.62
2019-02-17T18:16:53.330Z,75.92
2019-02-17T18:19:21.891Z,76.62
2019-02-17T18:21:50.199Z,77.01
2019-02-17T18:24:18.582Z,77.75
2019-02-17T18:26:47.331Z,77.81
2019-02-17T18:29:16.187Z,77.88
2019-02-17T18:31:45.051Z,77.84
2019-02-17T18:34:13.682Z,77.96
2019-02-17T18:36:42.125Z,78.10
2019-02-17T18:41:50.850Z,78.53
2019-02-17T18:44:19.592Z,78.80
2019-02-17T18:46:47.875Z,79.04
2019-02-17T18:49:16.227Z,78.88
2019-02-17T18:51:44.577Z,79.07
2019-02-17T18:54:12.597Z,78.86
2019-02-17T18:56:40.875Z,79.17
2019-02-17T18:59:10.843Z,78.82
2019-02-17T19:01:38.772Z,78.82
2019-02-17T19:04:07.571Z,79.02
2019-02-17T19:06:35.827Z,79.19
2019-02-17T19:09:04.347Z,79.60
2019-02-17T19:11:33.205Z,80.12
2019-02-17T19:14:01.970Z,79.67
2019-02-17T19:16:31.048Z,79.62
2019-02-17T19:19:00.019Z,79.65
2019-02-17T19:21:28.753Z,80.05
2019-02-17T19:23:56.974Z,80.56
2019-02-17T19:26:26.008Z,80.77
2019-02-17T19:28:54.967Z,80.46
2019-02-17T19:31:23.373Z,80.70
2019-02-17T19:33:52.199Z,80.72
2019-02-17T19:36:20.551Z,80.51
2019-02-17T19:38:49.303Z,79.94
2019-02-17T19:41:16.960Z,79.34
2019-02-17T19:43:45.186Z,78.78
2019-02-17T19:46:13.491Z,78.69
2019-02-17T19:48:42.401Z,78.96
2019-02-17T19:51:11.146Z,79.31
2019-02-17T19:53:39.541Z,80.13
2019-02-17T19:56:07.745Z,79.56
2019-02-17T19:58:35.803Z,79.85
2019-02-17T20:01:04.596Z,80.23
2019-02-17T20:03:51.781Z,80.36
2019-02-17T20:06:22.452Z,80.29
2019-02-17T20:08:51.195Z,80.09
2019-02-17T20:11:18.871Z,80.32
2019-02-17T20:13:47.129Z,80.64
2019-02-17T20:16:15.618Z,81.14
2019-02-17T20:18:44.577Z,82.13
2019-02-17T20:21:12.615Z,80.85
2019-02-17T20:23:41.012Z,80.55
2019-02-17T20:26:09.532Z,80.39
2019-02-17T20:28:43.303Z,79.54
2019-02-17T20:31:08.543Z,80.30
2019-02-17T20:33:36.534Z,81.08
2019-02-17T20:36:04.943Z,80.48
2019-02-17T20:38:33.304Z,80.86
2019-02-17T20:41:01.575Z,81.31
2019-02-17T20:43:30.255Z,83.29
2019-02-17T20:45:58.528Z,82.80
2019-02-17T20:48:26.418Z,82.74
2019-02-17T20:50:54.808Z,82.70
2019-02-17T20:53:23.075Z,82.29
2019-02-17T20:55:51.346Z,82.00
2019-02-17T20:58:19.807Z,81.81
2019-02-17T21:00:47.996Z,81.93
2019-02-17T21:03:16.292Z,81.84
2019-02-17T21:08:26.797Z,80.61
2019-02-17T21:11:06.784Z,80.48
2019-02-17T21:13:35.136Z,80.79
2019-02-17T21:18:59.891Z,82.68
2019-02-17T21:21:27.491Z,82.98
2019-02-17T21:23:55.676Z,82.97
2019-02-17T21:26:26.473Z,82.95
2019-02-17T21:29:03.221Z,84.12
2019-02-17T21:31:31.610Z,83.94
2019-02-17T21:33:59.859Z,85.80
2019-02-17T21:36:28.133Z,85.69
2019-02-17T21:38:58.783Z,84.05
2019-02-17T21:41:33.698Z,82.99
2019-02-17T21:44:01.986Z,82.02
2019-02-17T21:46:30.164Z,82.20
2019-02-17T21:48:58.598Z,81.29
2019-02-17T21:51:26.826Z,81.16
2019-02-17T21:53:55.554Z,81.45
2019-02-17T21:56:23.895Z,80.89
2019-02-17T21:58:52.503Z,81.30
2019-02-17T22:01:20.886Z,81.39
2019-02-17T22:03:49.505Z,81.94
2019-02-17T22:06:18.225Z,82.62
2019-02-17T22:08:46.537Z,82.82
2019-02-17T22:11:14.830Z,81.55
2019-02-17T22:13:42.802Z,81.59
2019-02-17T22:16:11.532Z,83.69
2019-02-17T22:18:39.362Z,83.62
2019-02-17T22:21:08.196Z,82.64
2019-02-17T22:23:36.753Z,81.40
2019-02-17T22:26:05.342Z,84.64
2019-02-17T22:28:33.636Z,82.40
2019-02-17T22:31:02.301Z,81.75
2019-02-17T22:33:30.570Z,81.93
2019-02-17T22:35:58.466Z,80.65
2019-02-17T22:38:26.867Z,80.56
2019-02-17T22:40:55.106Z,80.30
2019-02-17T22:43:22.748Z,81.54
2019-02-17T22:45:51.848Z,83.38
2019-02-17T22:48:20.076Z,81.42
2019-02-17T22:50:48.357Z,81.29
2019-02-17T22:53:16.733Z,81.26
2019-02-17T22:55:45.451Z,80.65
2019-02-17T22:58:13.501Z,80.33
2019-02-17T23:01:00.942Z,79.59
2019-02-17T23:03:29.657Z,79.72
2019-02-17T23:05:58.048Z,80.56
2019-02-17T23:08:26.595Z,81.28
2019-02-17T23:10:54.396Z,81.36
2019-02-17T23:13:22.332Z,81.22
2019-02-17T23:15:50.971Z,81.64
2019-02-17T23:18:19.211Z,81.85
2019-02-17T23:20:47.396Z,81.84
2019-02-17T23:23:15.675Z,81.81
2019-02-17T23:25:43.943Z,81.63
2019-02-17T23:28:11.995Z,82.78
2019-02-17T23:30:40.730Z,81.96
2019-02-17T23:33:08.592Z,82.14
2019-02-17T23:35:36.917Z,82.25
2019-02-17T23:38:05.676Z,82.24
2019-02-17T23:40:34.361Z,83.24
2019-02-17T23:43:02.542Z,83.54
2019-02-17T23:45:30.825Z,83.73
2019-02-17T23:47:58.745Z,83.40
2019-02-17T23:50:27.527Z,82.98
2019-02-17T23:52:56.292Z,83.12
2019-02-17T23:55:24.462Z,82.50
2019-02-17T23:57:52.778Z,82.71
